Zim Vancouver — A8LK5 — position and weather

sailwx.info

Track history (hours):
 
Tides and Currents Weather Stations Pressure Air Temp Water Temp Dewpoint Dewpoint Depression Visibility Wind Speed Wind Dir Waves Ship Positions

Zim Vancouver

Last reported at 2014-Sep-16 02:32 UTC. Time now 2014-Sep-16 13:24 UTC.
Position N 37°08' E 026°31'.

; draft 11.2 m.

Type: Ship (hazmat cat A). MMSI: 636013214.

Date/timePositionNaut miles runAvg speedWind from/ knotsBaromVisibWave heightAir tempDewpointWater temp
2014-Sep-16 02:32N 37°08' E 026°31'1616.7
2014-Sep-16 01:33N 37°17' E 026°15'1717.1
2014-Sep-16 00:33N 37°26' E 025°57'3615.5
2014-Sep-15 22:13N 38°01' E 025°44'1916.8
2014-Sep-15 21:04N 38°20' E 025°44'917.3
2014-Sep-15 20:33N 38°29' E 025°44'1817.6
2014-Sep-15 19:33N 38°47' E 025°44'1717.5
2014-Sep-15 18:33N 39°04' E 025°44'17114.2
2014-Sep-15 06:29N 40°54' E 028°36'6 0.4
2014-Sep-14 16:28N 40°55' E 028°43'1314.4
2014-Sep-14 15:33N 40°59' E 028°60'27 3.3
2014-Sep-14 07:33N 41°22' E 029°17'256 5.5
2014-Sep-12 08:32N 44°39' E 033°02'5513.6
2014-Sep-12 04:29N 44°17' E 034°13'1415.2
2014-Sep-12 03:33N 44°17' E 034°32'1515.1
2014-Sep-12 02:33N 44°17' E 034°53'11614.5
2014-Sep-11 18:33N 44°30' E 037°35'1414.1
2014-Sep-11 17:33N 44°39' E 037°50'6 5.7
2014-Sep-11 16:34N 44°44' E 037°47'0 0.0
2014-Sep-11 15:33N 44°44' E 037°47'0 0.0
2014-Sep-11 14:31N 44°44' E 037°47'0 0.0
2014-Sep-11 13:31N 44°44' E 037°47'0 0.0
2014-Sep-11 12:31N 44°44' E 037°47'0 0.0
2014-Sep-11 11:31N 44°44' E 037°47'0 0.0
2014-Sep-11 10:31N 44°44' E 037°47'0 0.0
2014-Sep-11 09:31N 44°44' E 037°47'0 0.0
2014-Sep-11 08:31N 44°44' E 037°47'0 0.0
2014-Sep-11 07:31N 44°44' E 037°47'0 0.0
2014-Sep-11 06:31N 44°44' E 037°47'0 0.0
2014-Sep-11 05:31N 44°44' E 037°47'0 0.0
2014-Sep-11 04:31N 44°44' E 037°47'0 0.0
2014-Sep-11 03:31N 44°44' E 037°47'0 0.0
2014-Sep-11 02:31N 44°44' E 037°47'0 0.0
2014-Sep-11 01:31N 44°44' E 037°47'0 0.0
2014-Sep-11 00:31N 44°44' E 037°47'0 0.0
2014-Sep-10 23:31N 44°44' E 037°47'0 0.0
2014-Sep-10 22:31N 44°44' E 037°47'0 0.0
2014-Sep-10 21:31N 44°44' E 037°47'0 0.0
2014-Sep-10 20:31N 44°44' E 037°47'0 0.0
2014-Sep-10 19:31N 44°44' E 037°47'0 0.0
2014-Sep-10 18:31N 44°44' E 037°47'0 0.0
2014-Sep-10 17:31N 44°44' E 037°47'0 0.0
2014-Sep-10 16:31N 44°44' E 037°47'0 0.0
2014-Sep-10 15:31N 44°44' E 037°47'0 0.0
2014-Sep-10 14:31N 44°44' E 037°47'0 0.0
2014-Sep-10 13:31N 44°44' E 037°47'0 0.0
2014-Sep-10 12:31N 44°44' E 037°47'0 0.0
2014-Sep-10 11:31N 44°44' E 037°47'0 0.0
2014-Sep-10 10:31N 44°44' E 037°47'0 0.0
2014-Sep-10 09:31N 44°44' E 037°47'0 0.0
2014-Sep-10 08:31N 44°44' E 037°47'0 0.0
2014-Sep-10 07:31N 44°44' E 037°47'0 0.0
2014-Sep-10 06:31N 44°44' E 037°47'0 0.0
2014-Sep-10 05:28N 44°44' E 037°47'0 0.0
2014-Sep-10 04:31N 44°44' E 037°47'0 0.0
2014-Sep-10 03:28N 44°44' E 037°47'0 0.0
2014-Sep-10 02:31N 44°44' E 037°47'0 0.0
2014-Sep-10 01:31N 44°44' E 037°47'0 0.0
2014-Sep-10 00:31N 44°44' E 037°47'0 0.0
2014-Sep-09 23:31N 44°44' E 037°47'0 0.0
2014-Sep-09 22:31N 44°44' E 037°47'0 0.0
2014-Sep-09 21:31N 44°44' E 037°47'0 0.0
2014-Sep-09 20:31N 44°44' E 037°47'0 0.0
2014-Sep-09 19:31N 44°44' E 037°47'0 0.0
2014-Sep-09 18:31N 44°44' E 037°47'0 0.0
2014-Sep-09 17:31N 44°44' E 037°47'0 0.0
2014-Sep-09 16:31N 44°44' E 037°47'0 0.0
2014-Sep-09 15:31N 44°44' E 037°47'0 0.0
2014-Sep-09 14:33N 44°44' E 037°47'0 0.0
2014-Sep-09 13:33N 44°44' E 037°47'0 0.2
2014-Sep-09 12:34N 44°44' E 037°47'3 2.7
2014-Sep-09 11:33N 44°41' E 037°49'8 8.3
2014-Sep-09 10:34N 44°33' E 037°52'1413.8
2014-Sep-09 09:33N 44°26' E 037°35'1514.6
2014-Sep-09 08:33N 44°20' E 037°17'  
Track history (hours):
 
Tides and Currents Weather Stations Pressure Air Temp Water Temp Dewpoint Dewpoint Depression Visibility Wind Speed Wind Dir Waves Ship Positions

Zim Vancouver

Last reported at 2014-Sep-16 02:32 UTC. Time now 2014-Sep-16 13:24 UTC.
Position N 37°08' E 026°31'.

; draft 11.2 m.

Type: Ship (hazmat cat A). MMSI: 636013214.

Date/timePositionNaut miles runAvg speedWind from/ knotsBaromVisibWave heightAir tempDewpointWater temp
2014-Sep-16 02:32N 37°08' E 026°31'1616.7
2014-Sep-16 01:33N 37°17' E 026°15'1717.1
2014-Sep-16 00:33N 37°26' E 025°57'3615.5
2014-Sep-15 22:13N 38°01' E 025°44'1916.8
2014-Sep-15 21:04N 38°20' E 025°44'917.3
2014-Sep-15 20:33N 38°29' E 025°44'1817.6
2014-Sep-15 19:33N 38°47' E 025°44'1717.5
2014-Sep-15 18:33N 39°04' E 025°44'17114.2
2014-Sep-15 06:29N 40°54' E 028°36'6 0.4
2014-Sep-14 16:28N 40°55' E 028°43'1314.4
2014-Sep-14 15:33N 40°59' E 028°60'27 3.3
2014-Sep-14 07:33N 41°22' E 029°17'256 5.5
2014-Sep-12 08:32N 44°39' E 033°02'5513.6
2014-Sep-12 04:29N 44°17' E 034°13'1415.2
2014-Sep-12 03:33N 44°17' E 034°32'1515.1
2014-Sep-12 02:33N 44°17' E 034°53'11614.5
2014-Sep-11 18:33N 44°30' E 037°35'1414.1
2014-Sep-11 17:33N 44°39' E 037°50'6 5.7
2014-Sep-11 16:34N 44°44' E 037°47'0 0.0
2014-Sep-11 15:33N 44°44' E 037°47'0 0.0
2014-Sep-11 14:31N 44°44' E 037°47'0 0.0
2014-Sep-11 13:31N 44°44' E 037°47'0 0.0
2014-Sep-11 12:31N 44°44' E 037°47'0 0.0
2014-Sep-11 11:31N 44°44' E 037°47'0 0.0
2014-Sep-11 10:31N 44°44' E 037°47'0 0.0
2014-Sep-11 09:31N 44°44' E 037°47'0 0.0
2014-Sep-11 08:31N 44°44' E 037°47'0 0.0
2014-Sep-11 07:31N 44°44' E 037°47'0 0.0
2014-Sep-11 06:31N 44°44' E 037°47'0 0.0
2014-Sep-11 05:31N 44°44' E 037°47'0 0.0
2014-Sep-11 04:31N 44°44' E 037°47'0 0.0
2014-Sep-11 03:31N 44°44' E 037°47'0 0.0
2014-Sep-11 02:31N 44°44' E 037°47'0 0.0
2014-Sep-11 01:31N 44°44' E 037°47'0 0.0
2014-Sep-11 00:31N 44°44' E 037°47'0 0.0
2014-Sep-10 23:31N 44°44' E 037°47'0 0.0
2014-Sep-10 22:31N 44°44' E 037°47'0 0.0
2014-Sep-10 21:31N 44°44' E 037°47'0 0.0
2014-Sep-10 20:31N 44°44' E 037°47'0 0.0
2014-Sep-10 19:31N 44°44' E 037°47'0 0.0
2014-Sep-10 18:31N 44°44' E 037°47'0 0.0
2014-Sep-10 17:31N 44°44' E 037°47'0 0.0
2014-Sep-10 16:31N 44°44' E 037°47'0 0.0
2014-Sep-10 15:31N 44°44' E 037°47'0 0.0
2014-Sep-10 14:31N 44°44' E 037°47'0 0.0
2014-Sep-10 13:31N 44°44' E 037°47'0 0.0
2014-Sep-10 12:31N 44°44' E 037°47'0 0.0
2014-Sep-10 11:31N 44°44' E 037°47'0 0.0
2014-Sep-10 10:31N 44°44' E 037°47'0 0.0
2014-Sep-10 09:31N 44°44' E 037°47'0 0.0
2014-Sep-10 08:31N 44°44' E 037°47'0 0.0
2014-Sep-10 07:31N 44°44' E 037°47'0 0.0
2014-Sep-10 06:31N 44°44' E 037°47'0 0.0
2014-Sep-10 05:28N 44°44' E 037°47'0 0.0
2014-Sep-10 04:31N 44°44' E 037°47'0 0.0
2014-Sep-10 03:28N 44°44' E 037°47'0 0.0
2014-Sep-10 02:31N 44°44' E 037°47'0 0.0
2014-Sep-10 01:31N 44°44' E 037°47'0 0.0
2014-Sep-10 00:31N 44°44' E 037°47'0 0.0
2014-Sep-09 23:31N 44°44' E 037°47'0 0.0
2014-Sep-09 22:31N 44°44' E 037°47'0 0.0
2014-Sep-09 21:31N 44°44' E 037°47'0 0.0
2014-Sep-09 20:31N 44°44' E 037°47'0 0.0
2014-Sep-09 19:31N 44°44' E 037°47'0 0.0
2014-Sep-09 18:31N 44°44' E 037°47'0 0.0
2014-Sep-09 17:31N 44°44' E 037°47'0 0.0
2014-Sep-09 16:31N 44°44' E 037°47'0 0.0
2014-Sep-09 15:31N 44°44' E 037°47'0 0.0
2014-Sep-09 14:33N 44°44' E 037°47'0 0.0
2014-Sep-09 13:33N 44°44' E 037°47'0 0.2
2014-Sep-09 12:34N 44°44' E 037°47'3 2.7
2014-Sep-09 11:33N 44°41' E 037°49'8 8.3
2014-Sep-09 10:34N 44°33' E 037°52'1413.8
2014-Sep-09 09:33N 44°26' E 037°35'1514.6
2014-Sep-09 08:33N 44°20' E 037°17'  

Dump ship's entire track history